sensor_id;sensor_type;location;lat;lon;timestamp;P1;durP1;ratioP1;P2;durP2;ratioP2
84297;SDS011;74466;51.188;3.242;2024-01-07T00:00:12;8.23;;;3.25;;
84297;SDS011;74466;51.188;3.242;2024-01-07T00:02:38;6.57;;;2.42;;
84297;SDS011;74466;51.188;3.242;2024-01-07T00:05:04;5.72;;;2.38;;
84297;SDS011;74466;51.188;3.242;2024-01-07T00:07:30;7.20;;;2.53;;
84297;SDS011;74466;51.188;3.242;2024-01-07T00:09:55;7.38;;;2.45;;
84297;SDS011;74466;51.188;3.242;2024-01-07T00:12:21;9.45;;;2.85;;
84297;SDS011;74466;51.188;3.242;2024-01-07T00:14:47;6.97;;;2.40;;
84297;SDS011;74466;51.188;3.242;2024-01-07T00:17:13;7.20;;;2.60;;
84297;SDS011;74466;51.188;3.242;2024-01-07T00:19:39;7.43;;;2.83;;
84297;SDS011;74466;51.188;3.242;2024-01-07T00:22:06;8.02;;;2.55;;
84297;SDS011;74466;51.188;3.242;2024-01-07T00:24:31;8.25;;;2.70;;
84297;SDS011;74466;51.188;3.242;2024-01-07T00:26:57;7.95;;;2.70;;
84297;SDS011;74466;51.188;3.242;2024-01-07T00:29:23;7.18;;;2.67;;
84297;SDS011;74466;51.188;3.242;2024-01-07T00:31:49;8.60;;;2.88;;
84297;SDS011;74466;51.188;3.242;2024-01-07T00:34:15;8.23;;;2.78;;
84297;SDS011;74466;51.188;3.242;2024-01-07T00:36:41;7.72;;;3.10;;
84297;SDS011;74466;51.188;3.242;2024-01-07T00:39:06;7.63;;;2.90;;
84297;SDS011;74466;51.188;3.242;2024-01-07T00:41:32;8.27;;;2.95;;
84297;SDS011;74466;51.188;3.242;2024-01-07T00:43:58;10.35;;;3.13;;
84297;SDS011;74466;51.188;3.242;2024-01-07T00:46:23;9.65;;;3.03;;
84297;SDS011;74466;51.188;3.242;2024-01-07T00:48:49;8.85;;;2.90;;
84297;SDS011;74466;51.188;3.242;2024-01-07T00:51:15;8.85;;;2.88;;
84297;SDS011;74466;51.188;3.242;2024-01-07T00:53:40;8.20;;;3.28;;
84297;SDS011;74466;51.188;3.242;2024-01-07T00:56:06;8.50;;;3.45;;
84297;SDS011;74466;51.188;3.242;2024-01-07T00:58:32;10.65;;;3.63;;
84297;SDS011;74466;51.188;3.242;2024-01-07T01:00:58;8.95;;;3.60;;
84297;SDS011;74466;51.188;3.242;2024-01-07T01:03:25;9.40;;;3.38;;
84297;SDS011;74466;51.188;3.242;2024-01-07T01:05:51;9.77;;;3.38;;
84297;SDS011;74466;51.188;3.242;2024-01-07T01:08:17;10.15;;;3.08;;
84297;SDS011;74466;51.188;3.242;2024-01-07T01:10:43;7.25;;;3.10;;
84297;SDS011;74466;51.188;3.242;2024-01-07T01:13:09;9.52;;;3.05;;
84297;SDS011;74466;51.188;3.242;2024-01-07T01:15:35;8.65;;;2.90;;
84297;SDS011;74466;51.188;3.242;2024-01-07T01:18:01;8.30;;;2.65;;
84297;SDS011;74466;51.188;3.242;2024-01-07T01:20:27;7.90;;;2.80;;
84297;SDS011;74466;51.188;3.242;2024-01-07T01:22:53;8.20;;;2.78;;
84297;SDS011;74466;51.188;3.242;2024-01-07T01:25:19;6.00;;;2.40;;
84297;SDS011;74466;51.188;3.242;2024-01-07T01:27:45;6.45;;;2.40;;
84297;SDS011;74466;51.188;3.242;2024-01-07T01:30:11;8.15;;;2.50;;
84297;SDS011;74466;51.188;3.242;2024-01-07T01:32:38;9.20;;;2.63;;
84297;SDS011;74466;51.188;3.242;2024-01-07T01:35:04;6.75;;;2.55;;
84297;SDS011;74466;51.188;3.242;2024-01-07T01:37:30;7.32;;;2.60;;
84297;SDS011;74466;51.188;3.242;2024-01-07T01:39:58;10.15;;;2.60;;
84297;SDS011;74466;51.188;3.242;2024-01-07T01:42:24;8.35;;;2.45;;
84297;SDS011;74466;51.188;3.242;2024-01-07T01:44:50;6.43;;;2.33;;
84297;SDS011;74466;51.188;3.242;2024-01-07T01:47:17;7.82;;;2.65;;
84297;SDS011;74466;51.188;3.242;2024-01-07T01:49:43;6.72;;;2.70;;
84297;SDS011;74466;51.188;3.242;2024-01-07T01:52:10;7.70;;;2.70;;
84297;SDS011;74466;51.188;3.242;2024-01-07T01:54:38;9.75;;;2.97;;
84297;SDS011;74466;51.188;3.242;2024-01-07T01:57:04;8.85;;;3.00;;
84297;SDS011;74466;51.188;3.242;2024-01-07T01:59:30;12.55;;;3.38;;
84297;SDS011;74466;51.188;3.242;2024-01-07T02:01:58;8.70;;;3.03;;
84297;SDS011;74466;51.188;3.242;2024-01-07T02:04:25;8.70;;;3.00;;
84297;SDS011;74466;51.188;3.242;2024-01-07T02:06:50;9.57;;;3.17;;
84297;SDS011;74466;51.188;3.242;2024-01-07T02:09:16;8.23;;;2.90;;
84297;SDS011;74466;51.188;3.242;2024-01-07T02:11:42;10.98;;;3.22;;
84297;SDS011;74466;51.188;3.242;2024-01-07T02:14:07;9.18;;;3.40;;
84297;SDS011;74466;51.188;3.242;2024-01-07T02:16:33;11.52;;;3.10;;
84297;SDS011;74466;51.188;3.242;2024-01-07T02:18:59;9.55;;;3.25;;
84297;SDS011;74466;51.188;3.242;2024-01-07T02:21:25;8.25;;;2.85;;
84297;SDS011;74466;51.188;3.242;2024-01-07T02:23:51;8.25;;;2.88;;
84297;SDS011;74466;51.188;3.242;2024-01-07T02:26:16;7.55;;;2.50;;
84297;SDS011;74466;51.188;3.242;2024-01-07T02:28:42;9.68;;;2.67;;
84297;SDS011;74466;51.188;3.242;2024-01-07T02:31:08;11.27;;;3.00;;
84297;SDS011;74466;51.188;3.242;2024-01-07T02:33:34;7.10;;;2.65;;
84297;SDS011;74466;51.188;3.242;2024-01-07T02:36:00;11.00;;;2.75;;
84297;SDS011;74466;51.188;3.242;2024-01-07T02:38:25;9.15;;;3.00;;
84297;SDS011;74466;51.188;3.242;2024-01-07T02:40:51;14.13;;;2.88;;
84297;SDS011;74466;51.188;3.242;2024-01-07T02:43:17;11.60;;;3.25;;
84297;SDS011;74466;51.188;3.242;2024-01-07T02:45:42;9.23;;;3.20;;
84297;SDS011;74466;51.188;3.242;2024-01-07T02:48:08;10.75;;;3.40;;
84297;SDS011;74466;51.188;3.242;2024-01-07T02:50:34;8.15;;;3.33;;
84297;SDS011;74466;51.188;3.242;2024-01-07T02:52:59;13.30;;;3.97;;
84297;SDS011;74466;51.188;3.242;2024-01-07T02:55:25;12.02;;;3.97;;
84297;SDS011;74466;51.188;3.242;2024-01-07T02:57:51;11.15;;;4.05;;
84297;SDS011;74466;51.188;3.242;2024-01-07T03:00:17;10.60;;;3.75;;
84297;SDS011;74466;51.188;3.242;2024-01-07T03:02:43;12.27;;;4.18;;
84297;SDS011;74466;51.188;3.242;2024-01-07T03:05:09;12.02;;;4.50;;
84297;SDS011;74466;51.188;3.242;2024-01-07T03:07:35;10.73;;;4.05;;
84297;SDS011;74466;51.188;3.242;2024-01-07T03:10:02;11.90;;;4.72;;
84297;SDS011;74466;51.188;3.242;2024-01-07T03:12:28;12.65;;;4.85;;
84297;SDS011;74466;51.188;3.242;2024-01-07T03:14:54;13.65;;;4.63;;
84297;SDS011;74466;51.188;3.242;2024-01-07T03:17:20;12.20;;;4.70;;
84297;SDS011;74466;51.188;3.242;2024-01-07T03:19:47;12.35;;;5.18;;
84297;SDS011;74466;51.188;3.242;2024-01-07T03:22:13;13.68;;;5.18;;
84297;SDS011;74466;51.188;3.242;2024-01-07T03:24:38;13.90;;;5.75;;
84297;SDS011;74466;51.188;3.242;2024-01-07T03:27:04;12.98;;;5.22;;
84297;SDS011;74466;51.188;3.242;2024-01-07T03:29:30;10.32;;;4.68;;
84297;SDS011;74466;51.188;3.242;2024-01-07T03:31:55;14.68;;;5.40;;
84297;SDS011;74466;51.188;3.242;2024-01-07T03:34:21;14.77;;;5.90;;
84297;SDS011;74466;51.188;3.242;2024-01-07T03:36:47;14.10;;;5.47;;
84297;SDS011;74466;51.188;3.242;2024-01-07T03:39:12;12.43;;;5.75;;
84297;SDS011;74466;51.188;3.242;2024-01-07T03:41:39;16.60;;;6.03;;
84297;SDS011;74466;51.188;3.242;2024-01-07T03:44:05;13.23;;;5.97;;
84297;SDS011;74466;51.188;3.242;2024-01-07T03:46:30;15.73;;;5.50;;
84297;SDS011;74466;51.188;3.242;2024-01-07T03:48:56;14.45;;;6.00;;
84297;SDS011;74466;51.188;3.242;2024-01-07T03:51:22;15.15;;;6.47;;
84297;SDS011;74466;51.188;3.242;2024-01-07T03:53:48;15.07;;;6.30;;
84297;SDS011;74466;51.188;3.242;2024-01-07T03:56:14;16.77;;;6.22;;
84297;SDS011;74466;51.188;3.242;2024-01-07T03:58:39;14.65;;;6.25;;
84297;SDS011;74466;51.188;3.242;2024-01-07T04:01:05;15.35;;;6.55;;
84297;SDS011;74466;51.188;3.242;2024-01-07T04:03:31;14.65;;;6.20;;
84297;SDS011;74466;51.188;3.242;2024-01-07T04:05:56;14.90;;;6.05;;
84297;SDS011;74466;51.188;3.242;2024-01-07T04:08:22;14.80;;;6.38;;
84297;SDS011;74466;51.188;3.242;2024-01-07T04:10:48;16.50;;;6.63;;
84297;SDS011;74466;51.188;3.242;2024-01-07T04:13:14;15.07;;;6.72;;
84297;SDS011;74466;51.188;3.242;2024-01-07T04:15:39;16.38;;;6.72;;
84297;SDS011;74466;51.188;3.242;2024-01-07T04:18:05;14.52;;;6.45;;
84297;SDS011;74466;51.188;3.242;2024-01-07T04:20:31;16.40;;;6.85;;
84297;SDS011;74466;51.188;3.242;2024-01-07T04:22:57;16.23;;;7.13;;
84297;SDS011;74466;51.188;3.242;2024-01-07T04:25:23;16.27;;;7.07;;
84297;SDS011;74466;51.188;3.242;2024-01-07T04:27:49;16.27;;;7.18;;
84297;SDS011;74466;51.188;3.242;2024-01-07T04:30:15;18.10;;;7.72;;
84297;SDS011;74466;51.188;3.242;2024-01-07T04:32:41;18.40;;;7.45;;
84297;SDS011;74466;51.188;3.242;2024-01-07T04:35:07;17.40;;;8.20;;
84297;SDS011;74466;51.188;3.242;2024-01-07T04:37:33;16.95;;;7.82;;
84297;SDS011;74466;51.188;3.242;2024-01-07T04:40:00;17.50;;;7.68;;
84297;SDS011;74466;51.188;3.242;2024-01-07T04:42:26;17.75;;;7.65;;
84297;SDS011;74466;51.188;3.242;2024-01-07T04:44:51;19.50;;;8.48;;
84297;SDS011;74466;51.188;3.242;2024-01-07T04:47:24;17.20;;;8.13;;
84297;SDS011;74466;51.188;3.242;2024-01-07T04:49:50;19.52;;;8.00;;
84297;SDS011;74466;51.188;3.242;2024-01-07T04:52:16;18.67;;;8.65;;
84297;SDS011;74466;51.188;3.242;2024-01-07T04:54:42;18.45;;;8.65;;
84297;SDS011;74466;51.188;3.242;2024-01-07T04:57:07;20.77;;;8.73;;
84297;SDS011;74466;51.188;3.242;2024-01-07T04:59:33;18.08;;;8.75;;
84297;SDS011;74466;51.188;3.242;2024-01-07T05:01:59;18.95;;;8.43;;
84297;SDS011;74466;51.188;3.242;2024-01-07T05:04:25;18.45;;;8.70;;
84297;SDS011;74466;51.188;3.242;2024-01-07T05:06:51;20.00;;;8.27;;
84297;SDS011;74466;51.188;3.242;2024-01-07T05:09:17;18.13;;;8.52;;
84297;SDS011;74466;51.188;3.242;2024-01-07T05:11:43;16.20;;;8.05;;
84297;SDS011;74466;51.188;3.242;2024-01-07T05:14:10;16.90;;;8.00;;
84297;SDS011;74466;51.188;3.242;2024-01-07T05:16:37;19.20;;;8.52;;
84297;SDS011;74466;51.188;3.242;2024-01-07T05:19:02;19.60;;;8.82;;
84297;SDS011;74466;51.188;3.242;2024-01-07T05:21:28;17.13;;;8.13;;
84297;SDS011;74466;51.188;3.242;2024-01-07T05:23:54;20.88;;;9.13;;
84297;SDS011;74466;51.188;3.242;2024-01-07T05:26:20;19.13;;;8.48;;
84297;SDS011;74466;51.188;3.242;2024-01-07T05:28:46;19.23;;;8.88;;
84297;SDS011;74466;51.188;3.242;2024-01-07T05:31:15;18.15;;;8.25;;
84297;SDS011;74466;51.188;3.242;2024-01-07T05:33:42;18.02;;;8.73;;
84297;SDS011;74466;51.188;3.242;2024-01-07T05:36:08;18.42;;;8.88;;
84297;SDS011;74466;51.188;3.242;2024-01-07T05:38:34;18.88;;;8.73;;
84297;SDS011;74466;51.188;3.242;2024-01-07T05:41:00;19.38;;;9.05;;
84297;SDS011;74466;51.188;3.242;2024-01-07T05:43:26;20.75;;;9.57;;
84297;SDS011;74466;51.188;3.242;2024-01-07T05:45:51;20.27;;;9.38;;
84297;SDS011;74466;51.188;3.242;2024-01-07T05:48:18;20.60;;;9.88;;
84297;SDS011;74466;51.188;3.242;2024-01-07T05:50:47;22.00;;;9.25;;
84297;SDS011;74466;51.188;3.242;2024-01-07T05:53:14;22.02;;;10.32;;
84297;SDS011;74466;51.188;3.242;2024-01-07T05:55:41;20.20;;;9.52;;
84297;SDS011;74466;51.188;3.242;2024-01-07T05:58:06;22.00;;;10.88;;
84297;SDS011;74466;51.188;3.242;2024-01-07T06:00:32;23.20;;;10.88;;
84297;SDS011;74466;51.188;3.242;2024-01-07T06:02:58;23.60;;;10.75;;
84297;SDS011;74466;51.188;3.242;2024-01-07T06:05:23;23.38;;;10.63;;
84297;SDS011;74466;51.188;3.242;2024-01-07T06:07:49;24.65;;;10.98;;
84297;SDS011;74466;51.188;3.242;2024-01-07T06:10:15;22.60;;;10.93;;
84297;SDS011;74466;51.188;3.242;2024-01-07T06:12:41;24.40;;;10.98;;
84297;SDS011;74466;51.188;3.242;2024-01-07T06:15:06;23.48;;;11.30;;
84297;SDS011;74466;51.188;3.242;2024-01-07T06:17:32;25.45;;;11.32;;
84297;SDS011;74466;51.188;3.242;2024-01-07T06:19:58;25.35;;;11.20;;
84297;SDS011;74466;51.188;3.242;2024-01-07T06:22:24;24.33;;;11.45;;
84297;SDS011;74466;51.188;3.242;2024-01-07T06:24:50;26.35;;;11.23;;
84297;SDS011;74466;51.188;3.242;2024-01-07T06:27:16;27.33;;;12.20;;
84297;SDS011;74466;51.188;3.242;2024-01-07T06:29:41;27.15;;;11.60;;
84297;SDS011;74466;51.188;3.242;2024-01-07T06:32:07;26.90;;;10.80;;
84297;SDS011;74466;51.188;3.242;2024-01-07T06:34:34;25.38;;;11.63;;
84297;SDS011;74466;51.188;3.242;2024-01-07T06:37:00;28.13;;;12.23;;
84297;SDS011;74466;51.188;3.242;2024-01-07T06:39:27;25.45;;;11.38;;
84297;SDS011;74466;51.188;3.242;2024-01-07T06:41:53;25.55;;;11.95;;
84297;SDS011;74466;51.188;3.242;2024-01-07T06:44:19;26.05;;;11.30;;
84297;SDS011;74466;51.188;3.242;2024-01-07T06:46:45;28.27;;;12.68;;
84297;SDS011;74466;51.188;3.242;2024-01-07T06:49:11;26.80;;;11.98;;
84297;SDS011;74466;51.188;3.242;2024-01-07T06:51:37;26.35;;;11.50;;
84297;SDS011;74466;51.188;3.242;2024-01-07T06:54:03;24.65;;;11.52;;
84297;SDS011;74466;51.188;3.242;2024-01-07T06:56:30;24.10;;;11.43;;
84297;SDS011;74466;51.188;3.242;2024-01-07T06:58:56;24.80;;;11.80;;
84297;SDS011;74466;51.188;3.242;2024-01-07T07:01:22;27.63;;;12.52;;
84297;SDS011;74466;51.188;3.242;2024-01-07T07:03:48;26.85;;;12.07;;
84297;SDS011;74466;51.188;3.242;2024-01-07T07:06:15;26.52;;;11.88;;
84297;SDS011;74466;51.188;3.242;2024-01-07T07:08:41;26.40;;;11.57;;
84297;SDS011;74466;51.188;3.242;2024-01-07T07:11:07;25.85;;;11.43;;
84297;SDS011;74466;51.188;3.242;2024-01-07T07:13:33;27.23;;;12.07;;
84297;SDS011;74466;51.188;3.242;2024-01-07T07:15:59;26.48;;;12.23;;
84297;SDS011;74466;51.188;3.242;2024-01-07T07:18:25;23.77;;;11.20;;
84297;SDS011;74466;51.188;3.242;2024-01-07T07:20:51;23.92;;;11.30;;
84297;SDS011;74466;51.188;3.242;2024-01-07T07:23:17;27.90;;;12.40;;
84297;SDS011;74466;51.188;3.242;2024-01-07T07:25:43;25.60;;;11.90;;
84297;SDS011;74466;51.188;3.242;2024-01-07T07:28:08;27.35;;;12.68;;
84297;SDS011;74466;51.188;3.242;2024-01-07T07:30:34;28.13;;;13.38;;
84297;SDS011;74466;51.188;3.242;2024-01-07T07:33:00;26.42;;;12.30;;
84297;SDS011;74466;51.188;3.242;2024-01-07T07:35:26;29.40;;;13.38;;
84297;SDS011;74466;51.188;3.242;2024-01-07T07:37:53;26.05;;;12.45;;
84297;SDS011;74466;51.188;3.242;2024-01-07T07:40:19;29.77;;;13.10;;
84297;SDS011;74466;51.188;3.242;2024-01-07T07:42:45;30.00;;;13.55;;
84297;SDS011;74466;51.188;3.242;2024-01-07T07:45:10;27.33;;;12.73;;
84297;SDS011;74466;51.188;3.242;2024-01-07T07:47:36;28.80;;;12.80;;
84297;SDS011;74466;51.188;3.242;2024-01-07T07:50:02;30.05;;;13.07;;
84297;SDS011;74466;51.188;3.242;2024-01-07T07:52:29;26.27;;;12.57;;
84297;SDS011;74466;51.188;3.242;2024-01-07T07:54:54;28.02;;;12.60;;
84297;SDS011;74466;51.188;3.242;2024-01-07T07:57:21;27.90;;;12.70;;
84297;SDS011;74466;51.188;3.242;2024-01-07T07:59:47;32.15;;;13.48;;
84297;SDS011;74466;51.188;3.242;2024-01-07T08:02:14;28.80;;;12.10;;
84297;SDS011;74466;51.188;3.242;2024-01-07T08:04:39;27.35;;;11.85;;
84297;SDS011;74466;51.188;3.242;2024-01-07T08:07:08;28.02;;;12.15;;
84297;SDS011;74466;51.188;3.242;2024-01-07T08:09:34;27.10;;;12.32;;
84297;SDS011;74466;51.188;3.242;2024-01-07T08:12:06;27.90;;;12.13;;
84297;SDS011;74466;51.188;3.242;2024-01-07T08:14:32;30.30;;;12.50;;
84297;SDS011;74466;51.188;3.242;2024-01-07T08:16:58;25.63;;;11.55;;
84297;SDS011;74466;51.188;3.242;2024-01-07T08:19:24;26.65;;;11.73;;
84297;SDS011;74466;51.188;3.242;2024-01-07T08:21:50;26.13;;;11.07;;
84297;SDS011;74466;51.188;3.242;2024-01-07T08:24:16;24.83;;;11.57;;
84297;SDS011;74466;51.188;3.242;2024-01-07T08:26:42;25.45;;;10.75;;
84297;SDS011;74466;51.188;3.242;2024-01-07T08:29:07;23.33;;;10.52;;
84297;SDS011;74466;51.188;3.242;2024-01-07T08:31:33;21.42;;;9.90;;
84297;SDS011;74466;51.188;3.242;2024-01-07T08:33:59;23.63;;;10.00;;
84297;SDS011;74466;51.188;3.242;2024-01-07T08:36:25;23.67;;;10.52;;
84297;SDS011;74466;51.188;3.242;2024-01-07T08:38:51;22.42;;;10.00;;
84297;SDS011;74466;51.188;3.242;2024-01-07T08:41:17;21.60;;;9.90;;
84297;SDS011;74466;51.188;3.242;2024-01-07T08:43:43;24.38;;;10.30;;
84297;SDS011;74466;51.188;3.242;2024-01-07T08:46:10;20.90;;;9.60;;
84297;SDS011;74466;51.188;3.242;2024-01-07T08:48:36;21.35;;;9.20;;
84297;SDS011;74466;51.188;3.242;2024-01-07T08:51:02;25.35;;;10.73;;
84297;SDS011;74466;51.188;3.242;2024-01-07T08:53:28;21.70;;;9.70;;
84297;SDS011;74466;51.188;3.242;2024-01-07T08:55:54;24.95;;;10.52;;
84297;SDS011;74466;51.188;3.242;2024-01-07T08:58:19;23.13;;;10.52;;
84297;SDS011;74466;51.188;3.242;2024-01-07T09:00:46;20.60;;;9.88;;
84297;SDS011;74466;51.188;3.242;2024-01-07T09:03:12;25.70;;;10.32;;
84297;SDS011;74466;51.188;3.242;2024-01-07T09:05:38;24.02;;;10.80;;
84297;SDS011;74466;51.188;3.242;2024-01-07T09:08:04;25.02;;;11.13;;
84297;SDS011;74466;51.188;3.242;2024-01-07T09:10:50;23.27;;;9.88;;
84297;SDS011;74466;51.188;3.242;2024-01-07T09:13:16;22.92;;;11.20;;
84297;SDS011;74466;51.188;3.242;2024-01-07T09:15:42;26.13;;;11.45;;
84297;SDS011;74466;51.188;3.242;2024-01-07T09:18:08;24.75;;;11.20;;
84297;SDS011;74466;51.188;3.242;2024-01-07T09:20:33;25.50;;;11.45;;
84297;SDS011;74466;51.188;3.242;2024-01-07T09:22:59;24.83;;;11.45;;
84297;SDS011;74466;51.188;3.242;2024-01-07T09:25:25;25.92;;;11.68;;
84297;SDS011;74466;51.188;3.242;2024-01-07T09:27:51;28.27;;;12.05;;
84297;SDS011;74466;51.188;3.242;2024-01-07T09:30:17;26.42;;;11.68;;
84297;SDS011;74466;51.188;3.242;2024-01-07T09:32:43;28.40;;;12.90;;
84297;SDS011;74466;51.188;3.242;2024-01-07T09:35:09;27.30;;;11.90;;
84297;SDS011;74466;51.188;3.242;2024-01-07T09:37:35;28.10;;;11.77;;
84297;SDS011;74466;51.188;3.242;2024-01-07T09:40:01;26.23;;;12.02;;
84297;SDS011;74466;51.188;3.242;2024-01-07T09:42:27;27.48;;;12.35;;
84297;SDS011;74466;51.188;3.242;2024-01-07T09:44:53;27.27;;;12.30;;
84297;SDS011;74466;51.188;3.242;2024-01-07T09:47:19;27.25;;;12.20;;
84297;SDS011;74466;51.188;3.242;2024-01-07T09:49:45;29.27;;;12.15;;
84297;SDS011;74466;51.188;3.242;2024-01-07T09:52:11;25.80;;;12.05;;
84297;SDS011;74466;51.188;3.242;2024-01-07T09:54:38;28.98;;;12.55;;
84297;SDS011;74466;51.188;3.242;2024-01-07T09:57:06;27.30;;;12.27;;
84297;SDS011;74466;51.188;3.242;2024-01-07T09:59:33;30.10;;;12.82;;
84297;SDS011;74466;51.188;3.242;2024-01-07T10:02:00;29.67;;;12.43;;
84297;SDS011;74466;51.188;3.242;2024-01-07T10:04:26;28.38;;;12.30;;
84297;SDS011;74466;51.188;3.242;2024-01-07T10:06:53;29.92;;;12.63;;
84297;SDS011;74466;51.188;3.242;2024-01-07T10:09:19;32.95;;;13.43;;
84297;SDS011;74466;51.188;3.242;2024-01-07T10:11:49;31.38;;;13.45;;
84297;SDS011;74466;51.188;3.242;2024-01-07T10:14:15;33.20;;;14.00;;
84297;SDS011;74466;51.188;3.242;2024-01-07T10:16:41;35.63;;;14.68;;
84297;SDS011;74466;51.188;3.242;2024-01-07T10:19:07;30.08;;;12.85;;
84297;SDS011;74466;51.188;3.242;2024-01-07T10:21:33;31.02;;;13.55;;
84297;SDS011;74466;51.188;3.242;2024-01-07T10:24:11;32.70;;;13.82;;
84297;SDS011;74466;51.188;3.242;2024-01-07T10:26:38;30.27;;;12.82;;
84297;SDS011;74466;51.188;3.242;2024-01-07T10:29:04;29.90;;;13.60;;
84297;SDS011;74466;51.188;3.242;2024-01-07T10:31:31;30.00;;;13.30;;
84297;SDS011;74466;51.188;3.242;2024-01-07T10:33:57;30.75;;;13.82;;
84297;SDS011;74466;51.188;3.242;2024-01-07T10:36:24;33.30;;;14.50;;
84297;SDS011;74466;51.188;3.242;2024-01-07T10:38:50;31.02;;;14.02;;
84297;SDS011;74466;51.188;3.242;2024-01-07T10:41:19;32.22;;;13.98;;
84297;SDS011;74466;51.188;3.242;2024-01-07T10:43:48;32.83;;;14.13;;
84297;SDS011;74466;51.188;3.242;2024-01-07T10:46:15;32.10;;;13.82;;
84297;SDS011;74466;51.188;3.242;2024-01-07T10:48:58;33.00;;;14.15;;
84297;SDS011;74466;51.188;3.242;2024-01-07T10:51:27;31.50;;;13.73;;
84297;SDS011;74466;51.188;3.242;2024-01-07T10:53:53;34.47;;;14.73;;
84297;SDS011;74466;51.188;3.242;2024-01-07T10:56:25;32.63;;;14.27;;
84297;SDS011;74466;51.188;3.242;2024-01-07T10:58:57;30.75;;;12.35;;
84297;SDS011;74466;51.188;3.242;2024-01-07T11:01:23;31.23;;;13.27;;
84297;SDS011;74466;51.188;3.242;2024-01-07T11:03:57;32.83;;;13.63;;
84297;SDS011;74466;51.188;3.242;2024-01-07T11:06:36;31.17;;;12.82;;
84297;SDS011;74466;51.188;3.242;2024-01-07T11:11:54;31.48;;;13.68;;
84297;SDS011;74466;51.188;3.242;2024-01-07T11:14:42;31.13;;;13.48;;
84297;SDS011;74466;51.188;3.242;2024-01-07T11:17:39;29.35;;;13.07;;
84297;SDS011;74466;51.188;3.242;2024-01-07T11:20:21;31.85;;;14.02;;
84297;SDS011;74466;51.188;3.242;2024-01-07T11:22:47;29.63;;;12.57;;
84297;SDS011;74466;51.188;3.242;2024-01-07T11:28:08;31.02;;;12.95;;
84297;SDS011;74466;51.188;3.242;2024-01-07T11:30:40;30.10;;;12.88;;
84297;SDS011;74466;51.188;3.242;2024-01-07T11:33:06;29.02;;;12.60;;
84297;SDS011;74466;51.188;3.242;2024-01-07T11:38:24;28.13;;;12.50;;
84297;SDS011;74466;51.188;3.242;2024-01-07T11:40:50;29.67;;;12.25;;
84297;SDS011;74466;51.188;3.242;2024-01-07T11:43:17;25.48;;;11.65;;
84297;SDS011;74466;51.188;3.242;2024-01-07T11:45:43;25.48;;;11.80;;
84297;SDS011;74466;51.188;3.242;2024-01-07T11:48:09;26.17;;;11.40;;
84297;SDS011;74466;51.188;3.242;2024-01-07T11:50:35;27.85;;;11.90;;
84297;SDS011;74466;51.188;3.242;2024-01-07T11:53:01;26.85;;;11.80;;
84297;SDS011;74466;51.188;3.242;2024-01-07T11:55:27;25.70;;;10.73;;
84297;SDS011;74466;51.188;3.242;2024-01-07T11:57:57;28.60;;;12.43;;
84297;SDS011;74466;51.188;3.242;2024-01-07T12:00:25;29.20;;;12.38;;
84297;SDS011;74466;51.188;3.242;2024-01-07T12:02:51;27.77;;;12.32;;
84297;SDS011;74466;51.188;3.242;2024-01-07T12:05:17;27.58;;;12.20;;
84297;SDS011;74466;51.188;3.242;2024-01-07T12:07:42;28.15;;;12.10;;
84297;SDS011;74466;51.188;3.242;2024-01-07T12:10:08;27.08;;;11.32;;
84297;SDS011;74466;51.188;3.242;2024-01-07T12:12:39;24.77;;;11.30;;
84297;SDS011;74466;51.188;3.242;2024-01-07T12:15:06;28.35;;;11.60;;
84297;SDS011;74466;51.188;3.242;2024-01-07T12:17:33;26.40;;;11.02;;
84297;SDS011;74466;51.188;3.242;2024-01-07T12:19:59;26.85;;;11.60;;
84297;SDS011;74466;51.188;3.242;2024-01-07T12:22:28;28.80;;;11.93;;
84297;SDS011;74466;51.188;3.242;2024-01-07T12:25:01;28.08;;;12.13;;
84297;SDS011;74466;51.188;3.242;2024-01-07T12:27:31;27.20;;;11.10;;
84297;SDS011;74466;51.188;3.242;2024-01-07T12:29:57;29.52;;;13.18;;
84297;SDS011;74466;51.188;3.242;2024-01-07T12:32:26;27.40;;;11.95;;
84297;SDS011;74466;51.188;3.242;2024-01-07T12:34:52;28.35;;;11.73;;
84297;SDS011;74466;51.188;3.242;2024-01-07T12:37:18;27.35;;;11.95;;
84297;SDS011;74466;51.188;3.242;2024-01-07T12:39:44;31.25;;;13.50;;
84297;SDS011;74466;51.188;3.242;2024-01-07T12:42:10;30.15;;;12.88;;
84297;SDS011;74466;51.188;3.242;2024-01-07T12:44:36;29.45;;;12.77;;
84297;SDS011;74466;51.188;3.242;2024-01-07T12:47:02;27.77;;;13.18;;
84297;SDS011;74466;51.188;3.242;2024-01-07T12:49:28;28.75;;;12.02;;
84297;SDS011;74466;51.188;3.242;2024-01-07T12:51:54;28.02;;;12.40;;
84297;SDS011;74466;51.188;3.242;2024-01-07T12:54:20;28.15;;;11.95;;
84297;SDS011;74466;51.188;3.242;2024-01-07T12:56:48;31.48;;;12.82;;
84297;SDS011;74466;51.188;3.242;2024-01-07T12:59:14;27.95;;;12.20;;
84297;SDS011;74466;51.188;3.242;2024-01-07T13:01:39;28.23;;;12.70;;
84297;SDS011;74466;51.188;3.242;2024-01-07T13:04:05;26.20;;;11.88;;
84297;SDS011;74466;51.188;3.242;2024-01-07T13:06:31;27.67;;;11.93;;
84297;SDS011;74466;51.188;3.242;2024-01-07T13:08:56;27.63;;;11.63;;
84297;SDS011;74466;51.188;3.242;2024-01-07T13:11:22;28.65;;;11.52;;
84297;SDS011;74466;51.188;3.242;2024-01-07T13:13:48;25.73;;;11.20;;
84297;SDS011;74466;51.188;3.242;2024-01-07T13:16:14;26.83;;;11.90;;
84297;SDS011;74466;51.188;3.242;2024-01-07T13:18:40;29.02;;;13.10;;
84297;SDS011;74466;51.188;3.242;2024-01-07T13:21:05;28.33;;;12.63;;
84297;SDS011;74466;51.188;3.242;2024-01-07T13:23:31;27.40;;;11.77;;
84297;SDS011;74466;51.188;3.242;2024-01-07T13:25:57;30.05;;;13.27;;
84297;SDS011;74466;51.188;3.242;2024-01-07T13:28:23;29.55;;;12.45;;
84297;SDS011;74466;51.188;3.242;2024-01-07T13:30:49;27.92;;;12.15;;
84297;SDS011;74466;51.188;3.242;2024-01-07T13:33:15;29.70;;;13.23;;
84297;SDS011;74466;51.188;3.242;2024-01-07T13:35:42;27.83;;;12.20;;
84297;SDS011;74466;51.188;3.242;2024-01-07T13:38:08;29.13;;;12.23;;
84297;SDS011;74466;51.188;3.242;2024-01-07T13:40:35;29.65;;;12.82;;
84297;SDS011;74466;51.188;3.242;2024-01-07T13:43:01;26.52;;;11.80;;
84297;SDS011;74466;51.188;3.242;2024-01-07T13:45:28;28.17;;;12.85;;
84297;SDS011;74466;51.188;3.242;2024-01-07T13:47:53;28.35;;;12.55;;
84297;SDS011;74466;51.188;3.242;2024-01-07T13:50:19;28.17;;;12.73;;
84297;SDS011;74466;51.188;3.242;2024-01-07T13:52:46;30.77;;;13.35;;
84297;SDS011;74466;51.188;3.242;2024-01-07T13:55:11;27.85;;;12.77;;
84297;SDS011;74466;51.188;3.242;2024-01-07T13:57:38;31.45;;;13.50;;
84297;SDS011;74466;51.188;3.242;2024-01-07T14:00:06;30.02;;;13.55;;
84297;SDS011;74466;51.188;3.242;2024-01-07T14:02:39;31.65;;;13.85;;
84297;SDS011;74466;51.188;3.242;2024-01-07T14:05:05;28.75;;;13.38;;
84297;SDS011;74466;51.188;3.242;2024-01-07T14:07:33;31.77;;;13.00;;
84297;SDS011;74466;51.188;3.242;2024-01-07T14:09:59;29.05;;;13.18;;
84297;SDS011;74466;51.188;3.242;2024-01-07T14:12:28;28.92;;;12.65;;
84297;SDS011;74466;51.188;3.242;2024-01-07T14:14:54;27.45;;;12.70;;
84297;SDS011;74466;51.188;3.242;2024-01-07T14:17:19;27.58;;;11.85;;
84297;SDS011;74466;51.188;3.242;2024-01-07T14:19:45;26.38;;;11.98;;
84297;SDS011;74466;51.188;3.242;2024-01-07T14:22:14;26.73;;;12.40;;
84297;SDS011;74466;51.188;3.242;2024-01-07T14:24:41;25.52;;;11.98;;
84297;SDS011;74466;51.188;3.242;2024-01-07T14:27:06;24.38;;;11.15;;
84297;SDS011;74466;51.188;3.242;2024-01-07T14:29:32;27.13;;;12.02;;
84297;SDS011;74466;51.188;3.242;2024-01-07T14:31:58;23.80;;;10.65;;